Time;durP1;ratioP1;P1;durP2;ratioP2;P2;SDS_P1;SDS_P2;PMS_P1;PMS_P2;Temp;Humidity;BMP_temperature;BMP_pressure;BME280_temperature;BME280_humidity;BME280_pressure;Samples;Min_cycle;Max_cycle;Signal;HPM_P1;HPM_P2
2021/03/19 00:01:01;;;;;;;5.17;3.10;;;0.10;78.60;;;;;;5037512;28;20211;-87
2021/03/19 00:03:38;;;;;;;4.60;3.40;;;0.20;78.40;;;;;;5037671;28;20198;-88
2021/03/19 00:06:06;;;;;;;4.90;3.47;;;0.30;78.00;;;;;;5055540;28;20221;-88
2021/03/19 00:08:32;;;;;;;5.70;3.47;;;0.30;77.80;;;;;;5037568;28;20374;-87
2021/03/19 00:11:02;;;;;;;4.40;3.03;;;0.30;77.80;;;;;;5037657;28;20639;-87
2021/03/19 00:13:34;;;;;;;5.87;3.50;;;0.30;77.40;;;;;;5055330;28;20602;-88
2021/03/19 00:16:03;;;;;;;7.93;3.37;;;0.30;77.50;;;;;;5037373;28;20179;-88
2021/03/19 00:18:36;;;;;;;9.73;3.43;;;0.20;77.60;;;;;;5055192;28;20283;-88
2021/03/19 00:21:08;;;;;;;6.47;3.20;;;0.10;77.80;;;;;;5037065;28;20215;-88
2021/03/19 00:23:39;;;;;;;5.63;3.77;;;0.00;78.20;;;;;;5037209;28;20239;-87
2021/03/19 00:26:14;;;;;;;7.10;3.30;;;0.00;78.30;;;;;;5055448;28;20164;-88
2021/03/19 00:28:48;;;;;;;5.73;3.20;;;-0.10;78.70;;;;;;5055084;28;20175;-88
2021/03/19 00:31:18;;;;;;;4.23;3.07;;;-0.10;78.60;;;;;;5055047;28;20671;-88
2021/03/19 00:33:45;;;;;;;4.87;3.13;;;0.00;78.60;;;;;;5037125;28;20177;-87
2021/03/19 00:36:11;;;;;;;3.87;2.80;;;0.00;78.30;;;;;;5055066;28;20664;-87
2021/03/19 00:38:37;;;;;;;6.97;3.17;;;-0.10;78.50;;;;;;5054876;28;20252;-87
2021/03/19 00:41:08;;;;;;;3.30;2.73;;;-0.20;78.80;;;;;;5054726;28;20202;-87
2021/03/19 00:43:34;;;;;;;4.87;3.03;;;-0.30;78.90;;;;;;5036970;28;20195;-87
2021/03/19 00:46:06;;;;;;;3.30;3.00;;;-0.30;79.20;;;;;;5036943;28;20238;-88
2021/03/19 00:48:32;;;;;;;5.40;2.83;;;-0.30;79.30;;;;;;5037699;28;20176;-88
2021/03/19 00:50:59;;;;;;;3.17;2.87;;;-0.40;79.40;;;;;;5054752;28;20361;-87
2021/03/19 00:53:25;;;;;;;3.10;2.80;;;-0.40;79.60;;;;;;5036772;28;20182;-87
2021/03/19 00:55:56;;;;;;;3.40;3.10;;;-0.30;79.60;;;;;;5036776;28;20193;-88
2021/03/19 00:58:23;;;;;;;5.13;3.03;;;-0.40;79.60;;;;;;5054514;28;20646;-88
2021/03/19 01:00:54;;;;;;;4.83;2.90;;;-0.40;79.60;;;;;;5054393;28;20204;-87
2021/03/19 01:03:24;;;;;;;3.90;2.50;;;-0.40;79.70;;;;;;5036505;28;20213;-87
2021/03/19 01:05:52;;;;;;;2.97;2.63;;;-0.50;79.70;;;;;;5054420;28;20252;-87
2021/03/19 01:08:23;;;;;;;3.53;2.60;;;-0.50;79.80;;;;;;5054328;28;20175;-87
2021/03/19 01:10:58;;;;;;;3.53;2.70;;;-0.50;79.90;;;;;;5036269;28;20247;-87
2021/03/19 01:13:32;;;;;;;3.30;2.63;;;-0.40;79.90;;;;;;5036815;28;20181;-88
2021/03/19 01:16:03;;;;;;;3.63;3.03;;;-0.40;80.00;;;;;;5054372;28;20217;-87
2021/03/19 01:18:33;;;;;;;3.30;2.83;;;-0.40;80.00;;;;;;5036612;28;20670;-87
2021/03/19 01:21:05;;;;;;;3.63;2.73;;;-0.30;79.80;;;;;;5036552;28;20686;-87
2021/03/19 01:23:34;;;;;;;4.23;2.93;;;-0.40;79.80;;;;;;5036050;28;20599;-87
2021/03/19 01:26:11;;;;;;;3.53;2.70;;;-0.30;79.70;;;;;;5036457;28;20181;-87
2021/03/19 01:28:44;;;;;;;2.87;2.30;;;-0.20;79.60;;;;;;5054065;28;20163;-87
2021/03/19 01:31:16;;;;;;;4.47;2.97;;;-0.20;79.30;;;;;;5053816;28;20198;-87
2021/03/19 01:33:47;;;;;;;6.00;2.97;;;-0.10;79.00;;;;;;5035984;28;20177;-87
2021/03/19 01:36:14;;;;;;;3.70;2.77;;;-0.10;78.60;;;;;;5053850;28;20194;-87
2021/03/19 01:38:51;;;;;;;4.87;2.90;;;-0.20;78.70;;;;;;5035790;28;20183;-87
2021/03/19 01:41:23;;;;;;;4.33;2.90;;;-0.20;78.70;;;;;;5053691;28;20276;-87
2021/03/19 01:44:11;;;;;;;3.47;2.97;;;-0.20;78.80;;;;;;5035876;28;20251;-87
2021/03/19 01:47:14;;;;;;;4.70;2.60;;;-0.10;78.90;;;;;;5035948;28;20697;-87
2021/03/19 01:50:20;;;;;;;5.07;3.10;;;-0.20;79.10;;;;;;5035708;28;20180;-87
2021/03/19 01:53:24;;;;;;;4.17;2.90;;;-0.10;79.10;;;;;;5036521;28;20522;-87
2021/03/19 01:56:31;;;;;;;4.30;3.10;;;-0.10;79.20;;;;;;5035696;28;20654;-87
2021/03/19 01:59:34;;;;;;;3.67;2.77;;;-0.20;79.50;;;;;;5035528;28;20219;-87
2021/03/19 02:02:42;;;;;;;4.67;3.37;;;-0.40;80.20;;;;;;5035503;28;20195;-87
2021/03/19 02:05:48;;;;;;;3.47;2.93;;;-0.50;80.50;;;;;;5053624;28;20556;-87
2021/03/19 02:08:54;;;;;;;3.50;2.90;;;-0.50;80.60;;;;;;5053437;28;20205;-87
2021/03/19 02:12:02;;;;;;;3.93;3.10;;;-0.40;80.50;;;;;;5035269;28;20701;-87
2021/03/19 02:15:08;;;;;;;5.40;3.50;;;-0.40;80.00;;;;;;5035261;28;20777;-87
2021/03/19 02:18:16;;;;;;;4.80;3.33;;;-0.30;79.80;;;;;;5035307;28;20181;-87
2021/03/19 02:21:22;;;;;;;4.90;3.20;;;-0.40;80.50;;;;;;5052273;28;20220;-87
2021/03/19 02:24:30;;;;;;;5.63;3.40;;;-0.50;81.20;;;;;;5035389;28;20293;-87
2021/03/19 02:27:37;;;;;;;6.30;3.13;;;-0.50;81.30;;;;;;5053009;28;20179;-87
2021/03/19 02:30:40;;;;;;;4.40;3.70;;;-0.60;81.50;;;;;;5053054;28;20220;-87
2021/03/19 02:33:11;;;;;;;4.30;3.90;;;-0.60;81.20;;;;;;5053191;28;20175;-88
2021/03/19 02:35:57;;;;;;;5.90;3.77;;;-0.60;81.10;;;;;;5035383;28;20263;-88
2021/03/19 02:38:27;;;;;;;5.77;3.53;;;-0.60;81.40;;;;;;5053213;28;20165;-87
2021/03/19 02:40:53;;;;;;;5.47;3.60;;;-0.60;82.00;;;;;;5034873;28;20237;-87
2021/03/19 02:43:28;;;;;;;7.70;3.30;;;-0.60;82.30;;;;;;5035089;28;20285;-87
2021/03/19 02:45:55;;;;;;;5.13;3.30;;;-0.60;82.60;;;;;;5035340;28;20580;-87
2021/03/19 02:48:30;;;;;;;4.37;3.53;;;-0.60;82.40;;;;;;5035076;28;20178;-87
2021/03/19 02:51:04;;;;;;;5.77;3.70;;;-0.60;82.30;;;;;;5053117;28;20201;-87
2021/03/19 02:53:37;;;;;;;7.73;3.63;;;-0.60;82.00;;;;;;5052921;28;20187;-87
2021/03/19 02:56:12;;;;;;;4.03;3.60;;;-0.60;81.90;;;;;;5052898;28;20181;-87
2021/03/19 02:58:44;;;;;;;5.47;3.50;;;-0.60;82.00;;;;;;5035134;28;20310;-88
2021/03/19 03:01:19;;;;;;;6.73;3.37;;;-0.50;81.90;;;;;;5052770;28;20674;-87
2021/03/19 03:03:45;;;;;;;3.50;3.07;;;-0.60;81.90;;;;;;5052728;28;20780;-87
2021/03/19 03:06:19;;;;;;;3.83;2.80;;;-0.50;81.90;;;;;;5034943;28;20184;-87
2021/03/19 03:09:00;;;;;;;4.50;3.30;;;-0.60;81.90;;;;;;5052807;28;20166;-88
2021/03/19 03:11:32;;;;;;;7.03;3.93;;;-0.50;81.90;;;;;;5052692;28;20279;-88
2021/03/19 03:14:05;;;;;;;4.67;3.50;;;-0.50;82.00;;;;;;5034847;28;20176;-87
2021/03/19 03:16:35;;;;;;;3.93;3.27;;;-0.60;82.10;;;;;;5034860;28;20178;-87
2021/03/19 03:19:07;;;;;;;5.23;3.43;;;-0.50;82.20;;;;;;5034844;28;20728;-87
2021/03/19 03:21:39;;;;;;;7.20;4.10;;;-0.60;82.30;;;;;;5052493;28;20561;-87
2021/03/19 03:24:09;;;;;;;5.20;3.40;;;-0.50;82.50;;;;;;5034698;28;20188;-87
2021/03/19 03:26:40;;;;;;;4.07;3.50;;;-0.50;83.00;;;;;;5034646;28;20677;-87
2021/03/19 03:29:10;;;;;;;6.23;3.70;;;-0.40;82.80;;;;;;5034805;28;20649;-88
2021/03/19 03:31:44;;;;;;;5.63;3.87;;;-0.40;82.80;;;;;;5034890;28;20201;-87
2021/03/19 03:34:14;;;;;;;5.33;3.90;;;-0.40;83.00;;;;;;5038287;28;20179;-87
2021/03/19 03:36:47;;;;;;;7.40;3.80;;;-0.40;82.90;;;;;;5039027;28;20182;-87
2021/03/19 03:39:23;;;;;;;7.77;3.87;;;-0.60;83.20;;;;;;5056167;28;20238;-87
2021/03/19 03:42:02;;;;;;;6.93;4.10;;;-0.70;83.70;;;;;;5038070;28;20189;-87
2021/03/19 03:44:30;;;;;;;4.67;3.67;;;-0.70;84.10;;;;;;5038029;28;20235;-87
2021/03/19 03:47:03;;;;;;;7.33;3.97;;;-0.70;84.10;;;;;;5037940;28;20220;-87
2021/03/19 03:49:33;;;;;;;6.00;4.00;;;-0.70;83.90;;;;;;5038166;28;20180;-87
2021/03/19 03:52:05;;;;;;;6.70;4.10;;;-0.60;83.80;;;;;;5056081;28;20203;-87
2021/03/19 03:54:38;;;;;;;5.03;3.93;;;-0.80;83.60;;;;;;5037987;28;20200;-88
2021/03/19 03:57:11;;;;;;;5.73;3.53;;;-0.80;83.60;;;;;;5038788;28;20187;-88
2021/03/19 03:59:42;;;;;;;5.07;3.83;;;-0.80;83.80;;;;;;5037656;28;20278;-87
2021/03/19 04:02:25;;;;;;;8.13;4.20;;;-0.80;83.70;;;;;;5037657;28;20199;-87
2021/03/19 04:04:58;;;;;;;7.60;4.30;;;-0.80;83.70;;;;;;5037729;28;20176;-87
2021/03/19 04:07:33;;;;;;;4.13;3.63;;;-0.80;83.70;;;;;;5038113;28;20205;-87
2021/03/19 04:10:06;;;;;;;5.23;4.20;;;-0.70;83.90;;;;;;5037712;28;20205;-87
2021/03/19 04:12:33;;;;;;;5.67;4.30;;;-0.60;84.10;;;;;;5037597;28;20184;-87
2021/03/19 04:15:04;;;;;;;6.23;4.50;;;-0.60;84.10;;;;;;5037502;28;20663;-87
2021/03/19 04:17:40;;;;;;;6.40;4.93;;;-0.60;83.80;;;;;;5037622;28;20209;-87
2021/03/19 04:20:13;;;;;;;6.20;4.80;;;-0.50;84.00;;;;;;5037313;28;20682;-88
2021/03/19 04:22:44;;;;;;;6.70;4.80;;;-0.40;83.60;;;;;;5037451;28;20284;-87
2021/03/19 04:25:18;;;;;;;9.07;5.00;;;-0.50;83.50;;;;;;5037377;28;20174;-88
2021/03/19 04:27:55;;;;;;;6.27;5.10;;;-0.50;83.60;;;;;;5055470;28;20595;-88
2021/03/19 04:30:32;;;;;;;6.63;5.20;;;-0.50;83.80;;;;;;5037245;28;20542;-87
2021/03/19 04:33:03;;;;;;;12.43;5.50;;;-0.50;84.00;;;;;;5055149;28;20209;-88
2021/03/19 04:35:34;;;;;;;8.27;5.20;;;-0.60;83.90;;;;;;5055031;28;20181;-88
2021/03/19 04:38:13;;;;;;;9.27;6.00;;;-0.60;83.80;;;;;;5054995;28;20176;-88
2021/03/19 04:40:51;;;;;;;7.67;5.17;;;-0.60;84.10;;;;;;5054936;28;20193;-87
2021/03/19 04:43:24;;;;;;;8.03;6.30;;;-0.50;84.10;;;;;;5036853;28;20213;-87
2021/03/19 04:45:56;;;;;;;9.23;5.43;;;-0.50;84.50;;;;;;5036865;28;20259;-87
2021/03/19 04:48:29;;;;;;;5.60;4.93;;;-0.40;84.00;;;;;;5037022;28;20172;-87
2021/03/19 04:50:57;;;;;;;6.73;5.03;;;-0.50;84.00;;;;;;5054997;28;20231;-87
2021/03/19 04:53:27;;;;;;;7.10;5.43;;;-0.40;84.10;;;;;;5054741;28;20181;-87
2021/03/19 04:56:01;;;;;;;6.77;5.93;;;-0.40;83.90;;;;;;5036931;28;20206;-87
2021/03/19 04:58:35;;;;;;;12.90;5.13;;;-0.40;83.90;;;;;;5054837;28;20174;-87
2021/03/19 05:01:07;;;;;;;6.80;4.57;;;-0.40;83.90;;;;;;5036761;28;20198;-87
2021/03/19 05:03:37;;;;;;;6.77;5.23;;;-0.40;83.60;;;;;;5036535;28;20228;-87
2021/03/19 05:06:09;;;;;;;7.10;5.07;;;-0.60;83.60;;;;;;5036638;28;20662;-87
2021/03/19 05:08:42;;;;;;;5.93;4.80;;;-0.60;83.60;;;;;;5036853;28;20715;-87
2021/03/19 05:11:08;;;;;;;9.97;4.60;;;-0.70;83.70;;;;;;5036488;28;20197;-87
2021/03/19 05:13:39;;;;;;;7.80;4.73;;;-0.80;83.70;;;;;;5036752;28;20181;-87
2021/03/19 05:16:09;;;;;;;8.10;5.13;;;-0.80;83.70;;;;;;5054259;28;20173;-87
2021/03/19 05:18:44;;;;;;;7.40;5.90;;;-0.80;83.40;;;;;;5036427;28;20169;-87
2021/03/19 05:21:15;;;;;;;6.60;4.87;;;-0.60;83.50;;;;;;5036202;28;20628;-87
2021/03/19 05:23:48;;;;;;;6.63;5.10;;;-0.80;83.20;;;;;;5054332;28;20256;-88
2021/03/19 05:26:20;;;;;;;7.17;6.00;;;-0.90;83.40;;;;;;5036754;28;20175;-87
2021/03/19 05:28:53;;;;;;;6.57;5.00;;;-0.90;83.60;;;;;;5054054;28;20171;-87
2021/03/19 05:31:24;;;;;;;5.23;4.70;;;-1.00;83.60;;;;;;5054170;28;20207;-87
2021/03/19 05:33:54;;;;;;;5.50;5.00;;;-1.00;83.60;;;;;;5054183;28;20170;-87
2021/03/19 05:36:31;;;;;;;8.83;5.90;;;-1.00;83.60;;;;;;5053903;28;20549;-87
2021/03/19 05:39:04;;;;;;;5.83;5.30;;;-0.90;83.90;;;;;;5035977;28;20180;-88
2021/03/19 05:41:37;;;;;;;6.93;5.20;;;-0.90;84.00;;;;;;5053780;28;20201;-88
2021/03/19 05:44:14;;;;;;;11.37;5.70;;;-0.80;84.10;;;;;;5053764;28;20222;-88
2021/03/19 05:46:49;;;;;;;7.77;5.90;;;-0.80;84.00;;;;;;5035829;28;20184;-87
2021/03/19 05:49:32;;;;;;;8.60;6.50;;;-0.90;83.80;;;;;;5035695;28;20252;-87
2021/03/19 05:52:18;;;;;;;7.23;5.87;;;-1.00;83.80;;;;;;5035752;28;20242;-88
2021/03/19 05:54:52;;;;;;;6.93;5.37;;;-0.90;84.00;;;;;;5035677;28;20198;-87
2021/03/19 05:57:36;;;;;;;7.60;6.30;;;-0.90;84.10;;;;;;5052959;28;20219;-87
2021/03/19 06:00:06;;;;;;;10.50;6.07;;;-0.90;84.40;;;;;;5035532;28;20195;-87
2021/03/19 06:02:41;;;;;;;8.93;6.67;;;-0.70;85.10;;;;;;5053476;28;20202;-87
2021/03/19 06:05:21;;;;;;;8.70;6.50;;;-0.60;84.80;;;;;;5053706;28;20522;-87
2021/03/19 06:08:00;;;;;;;9.50;6.50;;;-0.60;85.00;;;;;;5035631;28;20173;-87
2021/03/19 06:10:47;;;;;;;7.60;6.30;;;-0.40;85.10;;;;;;5035636;28;20202;-87
2021/03/19 06:13:24;;;;;;;9.37;7.27;;;-0.50;85.00;;;;;;5035689;28;20175;-87
2021/03/19 06:16:16;;;;;;;11.53;7.03;;;-0.50;85.40;;;;;;5035642;28;20181;-87
2021/03/19 06:18:50;;;;;;;10.63;7.23;;;-0.50;85.50;;;;;;5035241;28;20184;-88
2021/03/19 06:21:27;;;;;;;11.17;7.27;;;-0.40;86.00;;;;;;5035179;28;20581;-88
2021/03/19 06:24:08;;;;;;;13.37;7.53;;;-0.40;85.80;;;;;;5053351;28;20216;-88
2021/03/19 06:26:43;;;;;;;9.50;7.23;;;-0.30;86.10;;;;;;5035264;28;20280;-88
2021/03/19 06:29:31;;;;;;;11.47;7.67;;;-0.30;86.20;;;;;;5053274;28;20578;-88
2021/03/19 06:32:23;;;;;;;12.17;7.97;;;-0.30;86.20;;;;;;5035089;28;20201;-88
2021/03/19 06:35:14;;;;;;;16.13;7.90;;;-0.20;86.30;;;;;;5035172;28;20167;-88
2021/03/19 06:37:52;;;;;;;15.60;8.07;;;-0.20;86.70;;;;;;5035848;28;20160;-88
2021/03/19 06:40:34;;;;;;;11.93;7.83;;;-0.10;86.90;;;;;;5035159;28;20202;-88
2021/03/19 06:43:22;;;;;;;14.23;8.50;;;-0.10;87.10;;;;;;5035043;28;20248;-88
2021/03/19 06:46:11;;;;;;;10.97;8.07;;;-0.10;87.50;;;;;;5035109;28;20172;-88
2021/03/19 06:49:04;;;;;;;16.73;10.07;;;-0.10;87.90;;;;;;5053000;28;20203;-87
2021/03/19 06:51:34;;;;;;;15.27;8.57;;;-0.10;88.20;;;;;;5035065;28;20240;-88
2021/03/19 06:54:25;;;;;;;11.07;9.20;;;0.00;88.40;;;;;;5052908;28;20174;-88
2021/03/19 06:57:06;;;;;;;14.50;9.23;;;0.00;88.50;;;;;;5052807;28;20177;-88
2021/03/19 06:59:54;;;;;;;17.93;11.63;;;0.10;88.60;;;;;;5035038;28;20268;-88
2021/03/19 07:02:48;;;;;;;10.63;8.60;;;0.20;88.70;;;;;;5052706;28;20199;-87
2021/03/19 07:05:44;;;;;;;14.93;9.53;;;0.20;88.70;;;;;;5034941;28;20229;-88
2021/03/19 07:08:34;;;;;;;30.07;10.13;;;0.30;88.90;;;;;;5037758;28;20545;-87
2021/03/19 07:11:14;;;;;;;13.83;9.87;;;0.30;88.70;;;;;;5055326;28;20277;-87
2021/03/19 07:14:04;;;;;;;18.33;11.23;;;0.40;88.90;;;;;;5056625;28;20175;-87
2021/03/19 07:17:14;;;;;;;19.37;11.13;;;0.40;89.00;;;;;;5056508;28;20226;-87
2021/03/19 07:20:14;;;;;;;19.63;10.87;;;0.50;89.10;;;;;;5056463;28;20183;-87
2021/03/19 07:23:24;;;;;;;17.97;11.37;;;0.60;89.10;;;;;;5056357;28;20624;-87
2021/03/19 07:26:09;;;;;;;20.27;11.93;;;0.70;89.10;;;;;;5028021;28;20191;-87
2021/03/19 07:29:04;;;;;;;17.53;11.33;;;0.80;89.20;;;;;;5038547;28;20179;-87
2021/03/19 07:32:03;;;;;;;17.03;11.87;;;0.90;89.10;;;;;;5038344;28;20189;-87
2021/03/19 07:34:45;;;;;;;23.40;12.67;;;1.00;89.20;;;;;;5056248;28;20172;-87
2021/03/19 07:37:44;;;;;;;20.27;12.10;;;1.10;89.10;;;;;;5056257;28;20160;-87
2021/03/19 07:40:21;;;;;;;21.70;12.93;;;1.30;89.30;;;;;;5056037;28;20571;-87
2021/03/19 07:43:30;;;;;;;22.57;13.60;;;1.40;89.30;;;;;;5056038;28;20599;-87
2021/03/19 07:46:17;;;;;;;20.10;12.43;;;1.60;89.30;;;;;;5056004;28;20168;-87
2021/03/19 07:49:07;;;;;;;21.43;12.30;;;1.70;89.00;;;;;;5055891;28;20179;-87
2021/03/19 07:51:54;;;;;;;19.17;13.10;;;1.80;88.80;;;;;;5056135;28;20266;-87
2021/03/19 07:54:48;;;;;;;18.67;12.77;;;1.80;88.30;;;;;;5055909;28;20153;-87
2021/03/19 07:57:31;;;;;;;18.40;12.27;;;1.80;88.70;;;;;;5026479;28;20192;-87
2021/03/19 08:00:29;;;;;;;18.60;11.67;;;2.00;88.70;;;;;;5037806;28;20192;-87
2021/03/19 08:03:10;;;;;;;18.37;11.87;;;2.00;88.30;;;;;;5055675;28;20196;-87
2021/03/19 08:05:46;;;;;;;19.80;12.00;;;2.20;88.30;;;;;;5055702;28;20171;-87
2021/03/19 08:08:24;;;;;;;16.87;11.63;;;2.30;88.50;;;;;;5055562;28;20176;-87
2021/03/19 08:11:14;;;;;;;16.70;11.90;;;2.50;88.00;;;;;;5055464;28;20266;-87
2021/03/19 08:14:00;;;;;;;19.67;11.43;;;2.70;88.00;;;;;;5055471;28;20226;-87
2021/03/19 08:16:48;;;;;;;17.07;11.87;;;2.80;87.60;;;;;;5037488;28;20233;-87
2021/03/19 08:19:14;;;;;;;16.43;11.33;;;2.90;87.30;;;;;;5054237;28;20208;-87
2021/03/19 08:22:03;;;;;;;27.10;11.97;;;3.00;86.90;;;;;;5090547;23;20228;-86
2021/03/19 08:25:00;;;;;;;14.77;10.87;;;3.00;86.50;;;;;;5075996;28;20171;-86
2021/03/19 08:27:53;;;;;;;18.43;11.67;;;3.10;86.50;;;;;;5075567;28;20165;-85
2021/03/19 08:30:46;;;;;;;18.10;10.47;;;3.40;86.90;;;;;;5057738;28;20192;-85
2021/03/19 08:33:24;;;;;;;17.83;10.73;;;3.60;85.70;;;;;;5057800;28;20173;-84
2021/03/19 08:36:00;;;;;;;15.47;10.47;;;3.60;86.10;;;;;;5075891;28;20720;-84
2021/03/19 08:38:54;;;;;;;11.50;8.80;;;3.60;85.60;;;;;;5057748;28;20168;-84
2021/03/19 08:41:37;;;;;;;18.93;9.87;;;3.50;84.20;;;;;;5075689;28;20593;-85
2021/03/19 08:44:13;;;;;;;15.43;9.57;;;3.60;85.30;;;;;;5075498;28;20252;-84
2021/03/19 08:46:56;;;;;;;15.33;9.50;;;3.70;85.80;;;;;;5075516;28;20172;-85
2021/03/19 08:49:38;;;;;;;17.10;10.73;;;3.80;85.60;;;;;;5057965;28;20173;-84
2021/03/19 08:52:34;;;;;;;16.77;10.13;;;4.00;85.30;;;;;;5057200;28;20280;-84
2021/03/19 08:55:17;;;;;;;15.90;9.53;;;4.20;84.90;;;;;;5075563;28;20170;-84
2021/03/19 08:57:55;;;;;;;13.20;8.90;;;4.20;84.10;;;;;;5075533;28;20699;-85
2021/03/19 09:00:26;;;;;;;19.13;10.17;;;4.40;84.70;;;;;;5057281;28;20753;-84
2021/03/19 09:03:03;;;;;;;12.93;9.20;;;4.60;84.00;;;;;;5057427;28;20210;-84
2021/03/19 09:05:38;;;;;;;15.43;8.93;;;4.70;84.00;;;;;;5076075;28;20181;-84
2021/03/19 09:08:29;;;;;;;14.23;4.80;;;4.70;83.20;;;;;;5057972;28;20169;-85
2021/03/19 09:11:03;;;;;;;5.63;4.17;;;4.80;80.30;;;;;;5057558;28;20194;-85
2021/03/19 09:13:37;;;;;;;6.83;4.40;;;4.80;77.70;;;;;;5057344;28;20753;-84
2021/03/19 09:16:41;;;;;;;10.40;4.93;;;5.00;78.20;;;;;;5057132;28;20184;-85
2021/03/19 09:19:43;;;;;;;5.13;3.23;;;4.90;77.80;;;;;;5075584;28;20177;-85
2021/03/19 09:22:27;;;;;;;5.07;3.00;;;5.00;78.10;;;;;;5074634;28;20674;-85
2021/03/19 09:25:12;;;;;;;9.73;2.83;;;5.10;76.80;;;;;;5074701;28;20175;-86
2021/03/19 09:27:45;;;;;;;10.60;2.90;;;5.00;76.10;;;;;;5057860;28;20253;-85
2021/03/19 09:30:29;;;;;;;5.90;3.43;;;4.90;75.60;;;;;;5074051;28;20202;-86
2021/03/19 09:33:01;;;;;;;11.90;4.20;;;4.80;78.50;;;;;;5056035;28;20179;-85
2021/03/19 09:35:47;;;;;;;7.57;4.47;;;4.80;79.20;;;;;;5074202;28;20170;-85
2021/03/19 09:38:22;;;;;;;7.77;4.03;;;4.80;79.90;;;;;;5056897;28;20177;-85
2021/03/19 09:41:09;;;;;;;5.07;3.17;;;4.90;80.40;;;;;;5056423;28;20192;-85
2021/03/19 09:43:46;;;;;;;8.67;4.73;;;4.80;78.30;;;;;;5056509;28;20199;-85
2021/03/19 09:46:41;;;;;;;6.80;4.37;;;4.80;77.60;;;;;;5056453;28;20586;-85
2021/03/19 09:49:27;;;;;;;6.97;3.57;;;4.80;77.70;;;;;;5043651;28;20202;-84
2021/03/19 09:52:22;;;;;;;5.70;4.03;;;4.90;76.80;;;;;;5055881;28;20201;-85
2021/03/19 09:54:54;;;;;;;9.10;4.30;;;5.00;78.40;;;;;;5074699;28;20181;-82
2021/03/19 09:57:21;;;;;;;6.13;3.80;;;5.20;74.10;;;;;;5073875;28;20190;-84
2021/03/19 09:59:59;;;;;;;3.83;2.60;;;5.30;74.70;;;;;;5073372;28;20178;-83
2021/03/19 10:02:41;;;;;;;6.07;3.63;;;5.80;73.30;;;;;;5055383;28;20209;-83
2021/03/19 10:05:13;;;;;;;10.70;4.60;;;5.70;74.50;;;;;;5073582;28;20170;-83
2021/03/19 10:07:48;;;;;;;5.70;3.90;;;5.50;73.70;;;;;;5073303;28;20162;-83
2021/03/19 10:10:51;;;;;;;8.47;3.57;;;5.30;73.30;;;;;;5073228;28;20261;-83
2021/03/19 10:13:27;;;;;;;5.20;3.03;;;5.30;72.90;;;;;;5071257;28;20190;-83
2021/03/19 10:16:01;;;;;;;6.00;3.83;;;5.60;74.10;;;;;;5073347;28;20663;-84
2021/03/19 10:18:42;;;;;;;6.67;4.10;;;5.80;75.70;;;;;;5073263;28;20178;-83
2021/03/19 10:21:17;;;;;;;7.43;3.73;;;5.90;73.10;;;;;;5055019;28;20207;-83
2021/03/19 10:24:00;;;;;;;6.87;3.57;;;5.60;72.50;;;;;;5055617;28;20205;-83
2021/03/19 10:26:51;;;;;;;4.10;3.40;;;5.60;72.30;;;;;;5073224;28;20551;-83
2021/03/19 10:29:33;;;;;;;4.93;2.80;;;5.80;71.60;;;;;;5073272;28;20160;-83
2021/03/19 10:32:14;;;;;;;3.80;2.67;;;6.00;72.10;;;;;;5073180;28;20277;-83
2021/03/19 10:34:59;;;;;;;3.63;2.50;;;6.00;70.00;;;;;;5054997;28;20171;-82
2021/03/19 10:37:54;;;;;;;2.87;1.93;;;5.80;67.50;;;;;;5073109;28;20171;-83
2021/03/19 10:40:42;;;;;;;3.03;2.40;;;6.00;69.00;;;;;;5073496;28;20191;-83
2021/03/19 10:43:24;;;;;;;2.83;2.10;;;6.30;69.00;;;;;;5075628;28;20553;-82
2021/03/19 10:45:59;;;;;;;4.33;2.50;;;6.50;66.60;;;;;;5077203;28;20182;-82
2021/03/19 10:48:52;;;;;;;4.30;2.50;;;6.50;66.20;;;;;;5060022;28;20625;-82
2021/03/19 10:52:03;;;;;;;2.17;1.90;;;6.30;68.50;;;;;;5077230;28;20184;-83
2021/03/19 10:54:40;;;;;;;2.03;1.67;;;6.40;67.00;;;;;;5076979;28;20167;-82
2021/03/19 10:57:38;;;;;;;5.00;1.90;;;6.70;63.90;;;;;;5059426;28;20708;-82
2021/03/19 11:00:29;;;;;;;2.67;1.80;;;6.50;64.10;;;;;;5047634;28;20187;-82
2021/03/19 11:03:01;;;;;;;1.50;1.40;;;6.30;64.70;;;;;;5077126;28;20202;-82
2021/03/19 11:05:28;;;;;;;2.83;1.70;;;6.40;63.90;;;;;;5059159;28;20199;-83
2021/03/19 11:07:54;;;;;;;2.70;1.70;;;6.70;66.10;;;;;;5059201;28;20178;-82
2021/03/19 11:10:38;;;;;;;2.93;1.60;;;6.80;66.60;;;;;;5077035;28;20191;-81
2021/03/19 11:13:11;;;;;;;2.10;1.37;;;6.40;63.70;;;;;;5077086;28;20203;-81
2021/03/19 11:15:43;;;;;;;1.70;1.60;;;6.90;63.50;;;;;;5077000;28;20239;-81
2021/03/19 11:18:37;;;;;;;3.33;1.73;;;6.30;64.80;;;;;;5059092;28;20187;-82
2021/03/19 11:21:14;;;;;;;3.70;1.73;;;6.50;68.00;;;;;;5058681;28;20220;-81
2021/03/19 11:23:48;;;;;;;2.17;1.53;;;6.40;63.20;;;;;;5058798;28;20207;-82
2021/03/19 11:26:28;;;;;;;2.80;1.57;;;6.30;64.60;;;;;;5058658;28;20172;-81
2021/03/19 11:29:42;;;;;;;2.50;1.67;;;6.40;64.50;;;;;;5058683;28;20171;-83
2021/03/19 11:32:18;;;;;;;4.77;1.70;;;6.30;65.90;;;;;;5045659;28;20200;-82
2021/03/19 11:34:51;;;;;;;2.83;1.60;;;6.10;63.70;;;;;;5076689;28;20167;-82
2021/03/19 11:37:27;;;;;;;4.07;1.67;;;6.10;65.10;;;;;;5076535;28;20288;-84
2021/03/19 11:40:03;;;;;;;2.50;1.17;;;6.10;64.00;;;;;;5076183;28;20512;-80
2021/03/19 11:42:51;;;;;;;1.60;1.50;;;6.00;65.60;;;;;;5058709;28;20201;-82
2021/03/19 11:45:24;;;;;;;2.47;1.30;;;6.00;66.40;;;;;;5076223;28;20632;-83
2021/03/19 11:48:02;;;;;;;1.27;1.17;;;5.90;65.50;;;;;;5076406;28;20581;-83
2021/03/19 11:50:39;;;;;;;2.20;1.50;;;5.70;66.70;;;;;;5058063;28;20206;-82
2021/03/19 11:53:15;;;;;;;1.63;1.50;;;5.60;66.60;;;;;;5057907;28;20272;-82
2021/03/19 11:55:50;;;;;;;1.97;1.27;;;5.80;67.30;;;;;;5058104;28;20173;-83
2021/03/19 11:58:20;;;;;;;1.30;1.20;;;6.00;69.60;;;;;;5075981;28;20238;-82
2021/03/19 12:00:48;;;;;;;1.73;1.37;;;6.10;67.70;;;;;;5058097;28;20238;-83
2021/03/19 12:03:36;;;;;;;2.80;2.30;;;5.40;68.80;;;;;;5075846;28;20194;-83
2021/03/19 12:06:06;;;;;;;9.37;2.00;;;5.30;72.00;;;;;;5057845;28;20174;-82
2021/03/19 12:08:33;;;;;;;3.30;2.40;;;5.10;70.30;;;;;;5076184;28;20252;-82
2021/03/19 12:11:02;;;;;;;2.70;1.60;;;5.10;71.60;;;;;;5075736;28;20239;-82
2021/03/19 12:13:35;;;;;;;3.40;1.93;;;5.30;71.20;;;;;;5075616;28;20177;-82
2021/03/19 12:16:04;;;;;;;4.10;1.80;;;5.30;71.30;;;;;;5075708;28;20193;-82
2021/03/19 12:18:33;;;;;;;5.77;1.90;;;5.40;71.50;;;;;;5075621;28;20179;-83
2021/03/19 12:21:02;;;;;;;3.00;1.70;;;5.50;71.50;;;;;;5075472;28;20213;-82
2021/03/19 12:23:32;;;;;;;2.00;1.60;;;5.50;71.80;;;;;;5057383;28;20204;-83
2021/03/19 12:25:59;;;;;;;1.67;1.50;;;5.40;71.50;;;;;;5075284;28;20174;-83
2021/03/19 12:28:31;;;;;;;5.40;1.63;;;5.10;70.20;;;;;;5075240;28;20170;-83
2021/03/19 12:31:03;;;;;;;4.03;1.77;;;5.00;71.40;;;;;;5057223;28;20288;-83
2021/03/19 12:33:39;;;;;;;4.50;2.30;;;4.90;71.70;;;;;;5057283;28;20177;-83
2021/03/19 12:36:07;;;;;;;5.30;3.17;;;5.00;72.30;;;;;;5058016;28;20510;-82
2021/03/19 12:38:35;;;;;;;5.30;3.40;;;4.90;71.70;;;;;;5058132;28;20542;-83
2021/03/19 12:41:07;;;;;;;6.13;3.40;;;4.80;70.70;;;;;;5075197;28;20561;-82
2021/03/19 12:43:33;;;;;;;4.73;2.37;;;4.90;72.10;;;;;;5075058;28;20194;-82
2021/03/19 12:46:00;;;;;;;5.60;2.63;;;4.90;71.60;;;;;;5075407;28;20170;-82
2021/03/19 12:48:30;;;;;;;4.20;2.20;;;4.80;71.20;;;;;;5074949;28;20221;-81
2021/03/19 12:50:59;;;;;;;7.47;2.70;;;5.00;71.10;;;;;;5057185;28;20251;-82
2021/03/19 12:53:25;;;;;;;5.77;2.00;;;5.00;72.10;;;;;;5057132;28;20184;-81
2021/03/19 12:55:55;;;;;;;2.17;1.80;;;4.90;70.70;;;;;;5074937;28;20488;-81
2021/03/19 12:58:26;;;;;;;6.50;2.70;;;4.80;70.80;;;;;;5057160;28;20544;-81
2021/03/19 13:00:53;;;;;;;5.20;3.37;;;4.70;71.00;;;;;;5056970;28;20236;-82
2021/03/19 13:03:19;;;;;;;3.20;2.80;;;4.70;71.90;;;;;;5074703;28;20195;-82
2021/03/19 13:05:46;;;;;;;8.10;3.23;;;4.60;71.50;;;;;;5056358;28;20672;-81
2021/03/19 13:08:14;;;;;;;4.60;2.57;;;4.60;71.80;;;;;;5074498;28;20226;-81
2021/03/19 13:10:41;;;;;;;4.30;2.40;;;4.60;72.70;;;;;;5037982;28;20200;-82
2021/03/19 13:13:08;;;;;;;5.37;2.77;;;4.50;73.00;;;;;;5074218;28;20268;-81
2021/03/19 13:15:36;;;;;;;3.83;2.30;;;4.50;72.30;;;;;;5039481;28;20602;-82
2021/03/19 13:18:05;;;;;;;5.57;2.40;;;4.50;73.80;;;;;;5074339;28;20680;-82
2021/03/19 13:20:33;;;;;;;8.97;3.17;;;4.50;73.90;;;;;;5056428;28;20560;-82
2021/03/19 13:23:06;;;;;;;4.23;2.20;;;4.40;73.20;;;;;;5073992;28;20209;-83
2021/03/19 13:25:35;;;;;;;4.47;2.47;;;4.30;73.20;;;;;;5074360;28;20177;-81
2021/03/19 13:28:04;;;;;;;3.77;2.40;;;4.10;73.50;;;;;;5056362;28;20185;-81
2021/03/19 13:30:33;;;;;;;3.47;2.40;;;4.00;73.60;;;;;;5074174;28;20190;-80
2021/03/19 13:33:00;;;;;;;2.97;2.20;;;4.00;74.40;;;;;;5074431;28;20597;-81
2021/03/19 13:35:32;;;;;;;5.10;2.53;;;4.00;75.00;;;;;;5056122;28;20207;-82
2021/03/19 13:38:01;;;;;;;5.57;2.40;;;4.10;75.80;;;;;;5074217;28;20198;-84
2021/03/19 13:40:31;;;;;;;5.43;3.03;;;4.10;75.30;;;;;;5056743;28;20224;-78
2021/03/19 13:43:03;;;;;;;6.93;2.30;;;4.10;75.70;;;;;;5057426;28;20200;-80
2021/03/19 13:45:29;;;;;;;7.33;2.83;;;4.20;75.30;;;;;;5057335;28;20180;-79